Jorge Duque

Olheiro - Independiente Medellin
14 Out 2027
Quinta-feira
Processo

Personalidade

Adaptabilidade (13) Ambição (20) Controvérsia (18) Lealdade (12) Pressão (17) Profissionalismo (5) Espírito Esportivo (11) Temperamento (8)

Perfil

Estilo de Treinamento Democrático
Licença Nacional B
Determinação 9
Gestão de Pessoas 11
Motivação 9
Disciplina 6
Satisfação no Trabalho
100%
Fadiga
0%
Função Olheiro
Salário 29.0K p/s
Contrato 14.03.2029

Desempenho

Comportamento Bom
Eficácia do Treinamento
38%
Desenvolvimento do Jogador
20%
Prevenção de Lesões
20%
Implementação Tática
25%

Eventos Recentes

Participou de uma reunião de recrutamento 7d atrás
Participou de uma reunião de recrutamento 7d atrás
Participou de uma reunião de recrutamento 14d atrás
Participou de uma reunião de recrutamento 14d atrás
Participou de uma reunião de recrutamento 21d atrás
Participou de uma reunião de recrutamento 21d atrás
Participou de uma reunião de recrutamento 28d atrás
Participou de uma reunião de recrutamento 28d atrás

Monitorando agora

170
Jogador Clube Status Habilidade Confiança Observado Última observação Último voto
Sebastián Navarro Fortaleza CEIF Ativo 116 / 123 55% 1 05.07.2027 -
Josh Tymon Swansea City Ativo 112 / 120 40% 2 31.05.2027 -
Kristoffer Lund Birmingham Ativo 135 / 140 40% 1 31.05.2027 -
Tommaso Orsini Sambenedettese Ativo 97 / 107 40% 4 28.05.2027 -
Killian Cahill Leyton Orient Ativo 108 / 97 40% 3 27.05.2027 -
James Trafford Leeds United Ativo 149 / 131 40% 5 27.05.2027 -
Cesare Galeotti Trapani Ativo 125 / 120 40% 2 25.05.2027 -
Filippo Manfrin Arzignano Ativo 97 / 92 40% 2 25.05.2027 -
William Rovida Pro Patria Ativo 122 / 123 40% 3 24.05.2027 -
Valerio Boffelli Cavese Ativo 86 / 104 40% 2 21.05.2027 -
Facundo Vila Estudiantes Ativo 109 / 92 40% 2 20.05.2027 -
Lorenzo Cordaro Pergolettese Ativo 94 / 114 40% 2 20.05.2027 -
John Amah Plateau United Ativo 84 / 87 40% 1 17.05.2027 -
Sergio Barlocco Trento Ativo 106 / 126 40% 4 14.05.2027 -
Tomáš Frühwald Bohemians 1905 Ativo 133 / 100 40% 2 13.05.2027 -
Lorenzo Palmisani Frosinone Ativo 130 / 134 40% 2 12.05.2027 -
Filip Marschall Stevenage Ativo 97 / 130 40% 2 11.05.2027 -
Robin Roefs Sunderland Ativo 164 / 163 40% 4 10.05.2027 -
Nicolò Cambiaghi Bologna Ativo 137 / 125 40% 1 09.05.2027 -
Sebastián Jaume Albion Ativo 95 / 113 40% 1 08.05.2027 -
Strahinja Manojlović Radnicki Nis Ativo 93 / 95 40% 1 08.05.2027 -
Iván Arboleda Sarmiento Ativo 119 / 117 40% 1 07.05.2027 -
Stanley Mills Oxford United Ativo 128 / 107 40% 1 07.05.2027 -
Juanlu Bournemouth Ativo 157 / 142 40% 1 07.05.2027 -
David Turnbull Cardiff City Ativo 131 / 124 40% 3 05.05.2027 -
Malick Fofana Sunderland Ativo 126 / 150 40% 1 05.05.2027 -
Manuel Roffo Cerro Porteno Ativo 145 / 130 40% 1 04.05.2027 -
Cian Ashford Cardiff City Ativo 123 / 138 40% 1 27.04.2027 -
Mohamed-Ali Cho Hull City Ativo 150 / 132 40% 1 27.04.2027 -
Nicolas Schmid Portsmouth Ativo 107 / 109 40% 4 26.04.2027 -
Caoimhin Kelleher Brentford Ativo 166 / 158 40% 1 26.04.2027 -
Mats Wieffer Brighton Ativo 165 / 150 40% 1 26.04.2027 -
Giacomo Raspadori Atalanta Ativo 154 / 156 40% 1 26.04.2027 -
Max O'Leary West Bromwich Albion Ativo 107 / 121 40% 3 25.04.2027 -
Maílson Al-Taawoun Ativo 108 / 139 40% 2 25.04.2027 -
Deniz Ertaş Konyaspor Ativo 133 / 141 40% 3 24.04.2027 -
Facundo Cambeses Racing Club Ativo 126 / 127 40% 1 24.04.2027 -
Alexander Nübel Besiktas Ativo 136 / 164 40% 5 23.04.2027 -
Alex Meret Napoli Ativo 159 / 140 40% 2 23.04.2027 -
Arijanet Murić Sassuolo Ativo 152 / 156 40% 5 22.04.2027 -
Denis Adamov Zenit Ativo 112 / 117 40% 1 22.04.2027 -
Santiago Silva CFR Cluj Ativo 118 / 140 40% 3 19.04.2027 -
Yehor Yarmoliuk Brentford Ativo 144 / 145 40% 1 19.04.2027 -
Bilal Bayazıt Kayserispor Ativo 118 / 143 40% 3 17.04.2027 -
Bento Al-Nassr Ativo 152 / 149 40% 2 17.04.2027 -
Beau Reus Waasland-Beveren Ativo 144 / 138 40% 1 16.04.2027 -
Oleksandr Saputin Poltava Ativo 113 / 134 40% 2 10.04.2027 -
Morgan Whittaker Middlesbrough Ativo 132 / 115 40% 1 09.04.2027 -
Martin Jedlička Banik Ostrava Ativo 114 / 114 40% 2 08.04.2027 -
Jan Koutný Sigma Olomouc Ativo 106 / 111 40% 3 07.04.2027 -
Dean Henderson Crystal Palace Ativo 158 / 161 40% 4 07.04.2027 -
Szymon Weirauch Lechia Ativo 103 / 107 40% 1 07.04.2027 -
Maduka Okoye Udinese Ativo 132 / 145 40% 3 05.04.2027 -
Nikola Vasilj Al-Diriyah Ativo 138 / 154 40% 4 03.04.2027 -
Adrien Truffert Bournemouth Ativo 163 / 142 40% 1 31.03.2027 -
Emre Bilgin Giresunspor Ativo 125 / 106 40% 1 31.03.2027 -
Matteo Rizzo Cosenza Ativo 105 / 123 40% 1 28.03.2027 -
Daniel Kyerewaa Reading Ativo 102 / 126 40% 1 28.03.2027 -
Andrea Sergio Mazza Giana Erminio Ativo 75 / 84 40% 1 24.03.2027 -
Davide Mastrantonio Latina Ativo 100 / 99 40% 1 24.03.2027 -
Kostantis Tzolakis Hull City Ativo 155 / 152 40% 3 23.03.2027 -
Justin Bijlow Genoa Ativo 135 / 130 40% 1 21.03.2027 -
Enzo Le Fée Sunderland Ativo 144 / 156 40% 1 21.03.2027 -
Derensili Sanches Fernandes Huddersfield Town Ativo 133 / 106 40% 2 17.03.2027 -
Félix Lemaréchal Club Brugge Ativo 149 / 121 40% 1 17.03.2027 -
Tomás González Piast Ativo 101 / 106 40% 2 16.03.2027 -
Ronald Swansea City Ativo 111 / 119 40% 2 16.03.2027 -
Mduduzi Shabalala Kaizer Chiefs Ativo 133 / 110 40% 1 15.03.2027 -
Welington Southampton Ativo 120 / 115 40% 1 15.03.2027 -
Kyrylo Fesiun Shakhtar Ativo 135 / 121 40% 1 11.03.2027 -
Ollie Tanner Cardiff City Ativo 135 / 114 40% 1 10.03.2027 -
Mohamed Belloumi Hull City Ativo 137 / 131 40% 1 10.03.2027 -
Heorhii Yermakov Metalist Ativo 106 / 106 40% 1 09.03.2027 -
Barış Alper Yılmaz Galatasaray Ativo 142 / 159 40% 1 07.03.2027 -
Max Bird Birmingham Ativo 121 / 118 40% 1 07.03.2027 -
Ricardo Velho Aris Thessaloniki Ativo 111 / 137 40% 2 06.03.2027 -
Egil Selvik Watford Ativo 139 / 135 40% 1 06.03.2027 -
Bamba Dieng Crvena Zvezda Ativo 138 / 132 40% 1 04.03.2027 -
Jason Knight Bristol City Ativo 124 / 115 40% 1 04.03.2027 -
Christian Walton Ipswich Town Ativo 142 / 133 40% 1 01.03.2027 -
Georginio Rutter Brighton Ativo 148 / 130 40% 1 01.03.2027 -
Riccardo Gagno Vicenza Ativo 105 / 110 40% 2 26.02.2027 -
Ilja Tuseev Chelyabinsk Ativo 83 / 88 40% 1 25.02.2027 -
Walid Juma Al Shaab Ativo 100 / 125 40% 1 25.02.2027 -
Michael Cooper Sheffield United Ativo 116 / 122 40% 2 23.02.2027 -
Balázs Tóth Blackburn Rovers Ativo 137 / 114 40% 1 22.02.2027 -
Pol Tristán Barnsley Ativo 100 / 126 40% 1 21.02.2027 -
Gift Hlatshwayo Free State Stars Ativo 85 / 91 40% 1 19.02.2027 -
Tom Fellows Southampton Ativo 114 / 146 40% 2 17.02.2027 -
Radek Vítek Middlesbrough Ativo 151 / 130 40% 2 17.02.2027 -
Matt O'Riley Brighton Ativo 163 / 157 40% 1 16.02.2027 -
Amine Adli Bournemouth Ativo 142 / 161 40% 1 15.02.2027 Mais informações
Predrag Rajković Racing Genk Ativo 143 / 150 40% 1 12.02.2027 -
Rodrigo Gomes Wolverhampton Ativo 142 / 133 40% 1 10.02.2027 -
Thomas De Bruyne Mouscron Ativo 112 / 125 40% 1 09.02.2027 -
Michele Cerofolini Bari Ativo 123 / 132 40% 1 07.02.2027 -
Alexandr Koryakin Krasnodar Ativo 127 / 123 40% 1 06.02.2027 -
Tyrese Campbell Sheffield United Ativo 139 / 115 40% 1 04.02.2027 -
Mandla Erasmus SuperSport United Ativo 124 / 112 40% 1 01.02.2027 -
Mykyta Turbaievskyi Zorya Ativo 92 / 111 40% 1 01.02.2027 -
Juergen Elitím Bohemians 1905 Ativo 126 / 106 40% 2 29.01.2027 -
Williams Manyama SuperSport United Ativo 125 / 114 40% 2 26.01.2027 -
Nikita Iosifov Viktoria Plzen Ativo 132 / 108 40% 1 23.01.2027 -
Florentino Luís Ipswich Town Ativo 130 / 128 40% 1 23.01.2027 -
Mikkel Damsgaard Brentford Ativo 149 / 134 40% 1 22.01.2027 -
Jack Diamond Stockport County Ativo 138 / 101 40% 1 19.01.2027 -
Alan Lescano Argentinos Juniors Ativo 122 / 143 40% 3 15.01.2027 -
Oston O'runov Persepolis Ativo 144 / 137 40% 1 14.01.2027 -
Oswin Appollis Orlando Pirates Ativo 111 / 132 40% 1 07.01.2027 -
Kasey McAteer Ipswich Town Ativo 113 / 145 40% 1 06.01.2027 -
Éwil Murillo Santa Fe Ativo 129 / 110 48% 1 21.12.2026 -
Marquinhos Spartak Moscow Ativo 153 / 133 40% 1 30.11.2026 -
Franco Zapiola Platense Ativo 118 / 119 40% 1 24.11.2026 -
David Barbona Defensa y Justicia Ativo 121 / 113 40% 1 23.11.2026 -
Tiago Palacios Estudiantes Ativo 139 / 130 40% 2 21.11.2026 -
Brian Rodríguez Club America Ativo 122 / 136 40% 4 19.11.2026 -
Jeremy Márquez Cruz Azul Perdido 146 / 130 40% 2 19.11.2026 -
Alejandro Zendejas Club America Ativo 131 / 124 40% 2 19.11.2026 -
Gerardo Arteaga Monterrey Ativo 139 / 125 40% 1 17.11.2026 -
Víctor Guzmán Toluca Ativo 122 / 119 40% 1 15.11.2026 -
Efraín Álvarez Guadalajara Ativo 114 / 147 40% 1 12.11.2026 -
Alexis Cuello San Lorenzo Ativo 122 / 111 40% 3 10.11.2026 -
Franco Watson Lanús Ativo 131 / 116 40% 1 10.11.2026 -
Juninho Pumas UNAM Ativo 117 / 145 40% 1 08.11.2026 -
Matko Miljevic Racing Club Ativo 116 / 132 40% 2 06.11.2026 -
Rômulo Tigres Ativo 119 / 130 40% 2 05.11.2026 -
Alex Vigo Independiente Rivadavia Ativo 127 / 126 40% 1 05.11.2026 -
Siro Rosané Estudiantes Ativo 121 / 117 40% 1 05.11.2026 -
Salvador Reyes Leon Ativo 131 / 140 40% 1 05.11.2026 -
Richard Martinez Veracruz Ativo 136 / 130 40% 1 03.11.2026 -
Mauro Valiente Estudiantes Ativo 105 / 118 40% 1 31.10.2026 -
Víctor Dávila Club America Ativo 116 / 106 40% 1 29.10.2026 -
Rodrigo Bogarín Barracas Central Ativo 133 / 108 40% 1 28.10.2026 -
Paulo Victor Queretaro Ativo 105 / 116 40% 1 28.10.2026 -
Richard Ledezma Guadalajara Ativo 130 / 136 40% 1 28.10.2026 -
Luís Esteves Atlas Ativo 134 / 110 40% 1 25.10.2026 -
Joaquín Gho Argentinos Juniors Ativo 133 / 128 40% 1 24.10.2026 -
Matías Fernández Independiente Rivadavia Ativo 125 / 124 40% 2 23.10.2026 -
Sebastián Córdova Pumas UNAM Ativo 149 / 132 40% 1 23.10.2026 -
Franco Ibarra Rosario Central Ativo 115 / 115 40% 1 21.10.2026 -
Aarón Molinas Defensa y Justicia Ativo 132 / 137 40% 2 19.10.2026 -
Ezequiel Bullaude Santos Laguna Ativo 134 / 123 40% 2 16.10.2026 -
Bryan González Guadalajara Ativo 145 / 122 40% 1 16.10.2026 -
Adalberto Carrasquilla Pumas UNAM Ativo 115 / 122 40% 2 14.10.2026 -
Juan Pablo Domínguez Leon Ativo 135 / 135 40% 2 11.10.2026 -
Fernando Martínez Central Córdoba SdE Ativo 120 / 127 40% 1 07.10.2026 -
Víctor Guzmán Monterrey Ativo 116 / 139 40% 1 07.10.2026 -
Joaquín García Vélez Ativo 120 / 128 40% 1 07.10.2026 -
Axel Batista Quilmes Ativo 105 / 119 40% 1 01.10.2026 -
Rodrigo Herrera Newell's Old Boys Ativo 109 / 129 40% 1 01.10.2026 -
Nicolás Retamar Ferro Carril Oeste Ativo 112 / 128 40% 1 29.09.2026 -
Ramiro Ruiz Rodríguez Atlético Tucumán Ativo 133 / 111 40% 1 29.09.2026 -
Sebastián Jaurena San Martín SJ Ativo 126 / 112 40% 1 27.09.2026 -
Javier Altamirano Universidad de Chile Ativo 120 / 123 40% 1 26.09.2026 -
Tomás Porra Barracas Central Ativo 119 / 123 40% 1 22.09.2026 -
Eduardo Dos Santos Veracruz Ativo 129 / 99 40% 1 22.09.2026 -
Brian Gutiérrez Guadalajara Ativo 124 / 127 40% 1 14.09.2026 -
Iker Benito Queretaro Ativo 104 / 112 40% 3 10.09.2026 -
Lucas Souto Defensa y Justicia Ativo 115 / 114 40% 1 09.09.2026 -
César Galíndez Belgrano Ativo 79 / 93 40% 1 13.08.2026 -
Francisco Rincon Llaneros Ativo 85 / 97 40% 1 13.08.2026 -
Teun Gijselhart Deportivo La Coruña Ativo 112 / 96 40% 1 09.08.2026 -
Ian Wisdom Sporting Cristal Ativo 106 / 107 40% 1 09.08.2026 -
Tomás López Ferro Carril Oeste Ativo 92 / 95 40% 1 08.08.2026 -
Francisco Cuzzani Ferro Carril Oeste Ativo 84 / 94 40% 1 08.08.2026 -
Marco Oroná Antofagasta Ativo 84 / 98 40% 1 07.08.2026 -
Amín Molinas Libertad Ativo 112 / 114 40% 1 07.08.2026 -
Catriel Cabellos Sporting Cristal Ativo 121 / 101 40% 1 05.08.2026 -
Jhojan Julio Queretaro Ativo 98 / 113 40% 1 03.08.2026 -
Ricardo Chávez Monterrey Ativo 125 / 139 40% 1 02.08.2026 -